Time;durP1;ratioP1;P1;durP2;ratioP2;P2;SDS_P1;SDS_P2;PMS_P1;PMS_P2;Temp;Humidity;BMP_temperature;BMP_pressure;BME280_temperature;BME280_humidity;BME280_pressure;Samples;Min_cycle;Max_cycle;Signal;HPM_P1;HPM_P2
2024/03/28 00:00:03;;;;;;;3.93;1.10;;;8.90;94.10;;;;;;5069335;28;20653;-58
2024/03/28 00:02:32;;;;;;;3.57;1.47;;;8.80;93.90;;;;;;5066646;28;20201;-58
2024/03/28 00:04:58;;;;;;;4.80;1.47;;;8.80;93.80;;;;;;5054376;28;20211;-58
2024/03/28 00:07:24;;;;;;;1.53;1.00;;;8.80;93.90;;;;;;5070610;28;20206;-58
2024/03/28 00:09:50;;;;;;;1.93;1.00;;;8.80;93.90;;;;;;5066963;28;20498;-58
2024/03/28 00:12:16;;;;;;;2.30;1.10;;;8.80;94.00;;;;;;5067925;28;20209;-58
2024/03/28 00:14:42;;;;;;;2.97;0.97;;;8.80;93.90;;;;;;5051973;28;20269;-58
2024/03/28 00:17:08;;;;;;;2.40;1.20;;;8.80;93.90;;;;;;5067123;28;20247;-58
2024/03/28 00:19:34;;;;;;;1.43;1.33;;;8.80;93.80;;;;;;5054928;28;20205;-58
2024/03/28 00:22:01;;;;;;;4.47;1.37;;;8.90;93.80;;;;;;5068846;28;20203;-58
2024/03/28 00:24:27;;;;;;;6.20;1.20;;;8.90;93.70;;;;;;5071395;28;20203;-58
2024/03/28 00:26:53;;;;;;;4.17;1.40;;;8.80;93.70;;;;;;5069608;28;20215;-58
2024/03/28 00:29:19;;;;;;;4.43;1.37;;;8.80;93.70;;;;;;5070796;28;20214;-58
2024/03/28 00:31:45;;;;;;;2.60;0.90;;;8.80;93.80;;;;;;5074529;28;20200;-58
2024/03/28 00:34:11;;;;;;;1.77;1.13;;;8.80;93.70;;;;;;5067995;28;20291;-58
2024/03/28 00:36:37;;;;;;;3.37;1.00;;;8.80;93.70;;;;;;5072936;28;20270;-58
2024/03/28 00:39:04;;;;;;;2.70;0.97;;;8.80;93.70;;;;;;5070786;28;20242;-58
2024/03/28 00:41:30;;;;;;;2.53;1.00;;;8.90;93.60;;;;;;5071222;28;20201;-58
2024/03/28 00:43:56;;;;;;;3.83;1.33;;;8.90;93.40;;;;;;5074144;28;20204;-58
2024/03/28 00:46:22;;;;;;;2.03;1.20;;;8.80;93.20;;;;;;5064616;28;20197;-58
2024/03/28 00:48:48;;;;;;;2.30;1.07;;;8.80;93.20;;;;;;5070539;28;20205;-58
2024/03/28 00:51:16;;;;;;;6.90;0.97;;;8.90;93.10;;;;;;5072628;28;20212;-58
2024/03/28 00:53:42;;;;;;;4.20;1.60;;;8.90;93.00;;;;;;5070876;28;20199;-58
2024/03/28 00:56:08;;;;;;;10.47;1.40;;;8.90;92.90;;;;;;5074247;28;20536;-58
2024/03/28 00:58:34;;;;;;;2.60;0.97;;;8.90;92.90;;;;;;5069272;28;20279;-58
2024/03/28 01:01:02;;;;;;;2.43;1.20;;;9.00;92.80;;;;;;5073818;28;20195;-58
2024/03/28 01:03:29;;;;;;;2.47;1.00;;;9.00;92.70;;;;;;5073453;28;20198;-58
2024/03/28 01:05:59;;;;;;;2.90;1.27;;;9.00;92.70;;;;;;5071632;28;20676;-58
2024/03/28 01:08:26;;;;;;;6.20;1.30;;;9.00;92.70;;;;;;5073067;28;20639;-58
2024/03/28 01:10:52;;;;;;;2.13;1.20;;;8.90;92.70;;;;;;5073215;28;20223;-58
2024/03/28 01:13:18;;;;;;;5.07;1.17;;;8.90;92.80;;;;;;5075361;28;20204;-58
2024/03/28 01:15:44;;;;;;;1.47;0.70;;;8.80;92.80;;;;;;5072941;28;20196;-59
2024/03/28 01:18:10;;;;;;;2.00;0.90;;;8.80;93.00;;;;;;5072288;28;20260;-58
2024/03/28 01:20:36;;;;;;;5.63;1.17;;;8.60;93.10;;;;;;5073791;28;20216;-58
2024/03/28 01:23:03;;;;;;;5.33;1.40;;;8.60;93.40;;;;;;5073951;28;20205;-58
2024/03/28 01:25:29;;;;;;;7.93;1.60;;;8.60;93.60;;;;;;5074304;28;20641;-58
2024/03/28 01:27:55;;;;;;;3.00;1.50;;;8.50;93.70;;;;;;5072208;28;20538;-58
2024/03/28 01:30:21;;;;;;;0.90;0.90;;;8.50;93.80;;;;;;5073513;28;20520;-58
2024/03/28 01:32:47;;;;;;;1.60;1.00;;;8.50;93.90;;;;;;5074507;28;20199;-58
2024/03/28 01:35:13;;;;;;;1.70;0.93;;;8.50;93.70;;;;;;5067009;28;20230;-58
2024/03/28 01:37:40;;;;;;;1.63;1.07;;;8.40;93.80;;;;;;5069714;28;20223;-58
2024/03/28 01:40:07;;;;;;;2.30;1.33;;;8.40;94.00;;;;;;5075275;28;20200;-58
2024/03/28 01:42:34;;;;;;;3.70;1.07;;;8.30;94.00;;;;;;5072938;28;20190;-58
2024/03/28 01:45:00;;;;;;;3.43;1.20;;;8.30;94.10;;;;;;5061718;28;20254;-58
2024/03/28 01:47:27;;;;;;;3.67;1.00;;;8.30;94.00;;;;;;5076425;28;20206;-58
2024/03/28 01:49:53;;;;;;;1.07;0.97;;;8.20;93.90;;;;;;5074339;28;20233;-58
2024/03/28 01:52:20;;;;;;;8.40;0.93;;;8.20;94.00;;;;;;5075476;28;20198;-58
2024/03/28 01:54:47;;;;;;;2.07;1.00;;;8.20;94.10;;;;;;5075843;28;20226;-58
2024/03/28 01:57:14;;;;;;;3.90;1.13;;;8.20;94.10;;;;;;5076590;28;20603;-58
2024/03/28 01:59:42;;;;;;;1.50;0.90;;;8.20;94.10;;;;;;5078831;28;20542;-58
2024/03/28 02:02:08;;;;;;;1.60;1.00;;;8.20;94.20;;;;;;5076333;28;20215;-58
2024/03/28 02:04:37;;;;;;;2.83;1.00;;;8.20;94.20;;;;;;5062517;28;20204;-58
2024/03/28 02:07:03;;;;;;;3.03;1.07;;;8.20;94.30;;;;;;5080451;28;20867;-58
2024/03/28 02:09:30;;;;;;;3.90;0.70;;;8.10;94.30;;;;;;5076655;28;20196;-58
2024/03/28 02:11:58;;;;;;;2.10;1.10;;;8.10;94.30;;;;;;5075787;28;20632;-58
2024/03/28 02:14:25;;;;;;;1.50;0.63;;;8.00;94.10;;;;;;5078069;28;20202;-58
2024/03/28 02:16:51;;;;;;;2.70;0.87;;;8.00;94.20;;;;;;5078409;28;20213;-58
2024/03/28 02:19:17;;;;;;;5.50;1.30;;;7.90;94.30;;;;;;5076273;28;20641;-59
2024/03/28 02:21:49;;;;;;;1.13;1.03;;;7.90;94.40;;;;;;5079506;28;20221;-58
2024/03/28 02:24:15;;;;;;;3.17;1.03;;;7.90;94.60;;;;;;5071530;28;20197;-58
2024/03/28 02:26:41;;;;;;;6.60;1.33;;;7.90;94.60;;;;;;5083135;28;20193;-58
2024/03/28 02:29:07;;;;;;;3.57;1.30;;;7.90;94.70;;;;;;5074419;28;20205;-58
2024/03/28 02:31:33;;;;;;;4.30;1.23;;;7.90;94.80;;;;;;5072200;28;20213;-58
2024/03/28 02:33:59;;;;;;;2.27;1.17;;;8.00;94.80;;;;;;5074266;28;20206;-58
2024/03/28 02:36:25;;;;;;;2.63;1.33;;;8.00;94.90;;;;;;5073555;28;20198;-58
2024/03/28 02:38:51;;;;;;;6.03;1.27;;;8.00;94.90;;;;;;5072141;28;20280;-58
2024/03/28 02:41:21;;;;;;;7.10;1.90;;;8.00;94.90;;;;;;5074920;28;20613;-58
2024/03/28 02:43:47;;;;;;;8.87;1.50;;;7.90;94.90;;;;;;5068071;28;21462;-58
2024/03/28 02:46:13;;;;;;;2.80;0.97;;;7.90;94.90;;;;;;5075523;28;20199;-58
2024/03/28 02:48:40;;;;;;;2.43;1.50;;;7.90;94.90;;;;;;5076794;28;20697;-58
2024/03/28 02:51:06;;;;;;;1.57;1.17;;;7.90;94.90;;;;;;5075684;28;20659;-58
2024/03/28 02:53:32;;;;;;;2.80;0.90;;;7.90;94.90;;;;;;5059291;28;20192;-58
2024/03/28 02:55:58;;;;;;;4.63;1.60;;;7.90;94.90;;;;;;5074065;28;20194;-58
2024/03/28 02:58:24;;;;;;;3.47;2.23;;;7.80;94.90;;;;;;5074298;28;20205;-58
2024/03/28 03:00:50;;;;;;;5.20;1.30;;;7.80;95.00;;;;;;5074978;28;20198;-58
2024/03/28 03:03:16;;;;;;;3.47;1.43;;;7.70;95.00;;;;;;5077908;28;20186;-58
2024/03/28 03:05:43;;;;;;;4.33;1.77;;;7.70;95.00;;;;;;5076384;28;20295;-58
2024/03/28 03:08:11;;;;;;;1.70;1.30;;;7.70;95.10;;;;;;5077524;28;20198;-58
2024/03/28 03:10:37;;;;;;;3.87;1.50;;;7.60;95.00;;;;;;5086301;28;20207;-58
2024/03/28 03:13:03;;;;;;;2.83;1.60;;;7.60;95.00;;;;;;5072607;28;20206;-58
2024/03/28 03:15:30;;;;;;;3.93;1.40;;;7.60;95.00;;;;;;5084927;28;20656;-58
2024/03/28 03:17:56;;;;;;;3.00;1.50;;;7.50;95.00;;;;;;5072492;28;20221;-58
2024/03/28 03:20:24;;;;;;;4.13;1.13;;;7.50;95.00;;;;;;5069181;28;20637;-58
2024/03/28 03:22:53;;;;;;;5.77;1.60;;;7.50;95.00;;;;;;5075355;28;20631;-59
2024/03/28 03:25:26;;;;;;;3.10;1.20;;;7.50;95.10;;;;;;5073189;28;20193;-58
2024/03/28 03:36:08;;;;;;;4.43;1.50;;;7.50;95.30;;;;;;5073124;28;20198;-60
2024/03/28 03:38:34;;;;;;;1.50;1.23;;;7.50;95.30;;;;;;5054606;28;20238;-59
2024/03/28 03:41:01;;;;;;;1.20;1.10;;;7.50;95.20;;;;;;5072560;28;20647;-60
2024/03/28 03:43:28;;;;;;;2.40;1.20;;;7.50;95.20;;;;;;5037935;28;20235;-60
2024/03/28 03:45:55;;;;;;;2.97;1.30;;;7.50;95.00;;;;;;5069360;28;20206;-60
2024/03/28 03:48:22;;;;;;;4.30;1.30;;;7.50;95.10;;;;;;5069146;28;20203;-61
2024/03/28 03:50:55;;;;;;;3.50;1.90;;;7.40;95.20;;;;;;5039579;28;20207;-60
2024/03/28 03:53:21;;;;;;;3.10;1.50;;;7.40;95.40;;;;;;5063670;28;20300;-60
2024/03/28 03:55:56;;;;;;;2.70;1.87;;;7.40;95.40;;;;;;5064604;28;20235;-60
2024/03/28 03:58:23;;;;;;;4.67;1.20;;;7.40;95.50;;;;;;5034768;28;20221;-59
2024/03/28 04:00:49;;;;;;;2.93;1.27;;;7.40;95.50;;;;;;5052648;28;20211;-59
2024/03/28 04:03:17;;;;;;;2.53;1.20;;;7.50;95.50;;;;;;5064358;28;20256;-60
2024/03/28 04:05:43;;;;;;;1.20;1.00;;;7.50;95.50;;;;;;5045720;28;20271;-60
2024/03/28 04:08:10;;;;;;;1.80;0.93;;;7.60;95.60;;;;;;5071076;28;20695;-59
2024/03/28 04:10:36;;;;;;;4.00;1.47;;;7.70;95.60;;;;;;5053195;28;20286;-60
2024/03/28 04:13:04;;;;;;;4.03;0.87;;;7.70;95.60;;;;;;5055782;28;20322;-60
2024/03/28 04:15:31;;;;;;;1.00;0.83;;;7.80;95.60;;;;;;5066312;28;20199;-60
2024/03/28 04:17:57;;;;;;;3.77;1.53;;;7.80;95.50;;;;;;5072238;28;20211;-59
2024/03/28 04:20:23;;;;;;;1.90;0.73;;;7.80;95.50;;;;;;5070122;28;20284;-60
2024/03/28 04:22:51;;;;;;;10.77;1.33;;;7.90;95.60;;;;;;5034194;28;20199;-59
2024/03/28 04:25:18;;;;;;;3.63;0.90;;;7.90;95.60;;;;;;5054306;28;20208;-59
2024/03/28 04:27:44;;;;;;;3.83;0.83;;;8.00;95.70;;;;;;5051034;28;20210;-60
2024/03/28 04:30:12;;;;;;;2.83;1.10;;;8.00;95.70;;;;;;5057271;28;20206;-60
2024/03/28 04:32:38;;;;;;;4.93;1.10;;;8.00;95.60;;;;;;5074281;28;20203;-60
2024/03/28 04:35:05;;;;;;;6.13;1.10;;;8.10;95.50;;;;;;5073607;28;20209;-59
2024/03/28 04:37:31;;;;;;;1.13;0.77;;;8.10;95.50;;;;;;5086732;28;20657;-60
2024/03/28 04:39:57;;;;;;;2.20;1.00;;;8.10;95.50;;;;;;5072901;28;20682;-58
2024/03/28 04:42:23;;;;;;;3.97;1.03;;;8.10;95.50;;;;;;5071399;28;20236;-58
2024/03/28 04:44:49;;;;;;;4.93;1.10;;;8.10;95.40;;;;;;5072584;28;20198;-58
2024/03/28 04:47:15;;;;;;;5.77;1.00;;;8.10;95.40;;;;;;5070039;28;20233;-57
2024/03/28 04:49:43;;;;;;;2.17;0.73;;;8.10;95.40;;;;;;5070042;28;20643;-57
2024/03/28 04:52:09;;;;;;;4.37;1.10;;;8.00;95.40;;;;;;5069194;28;20206;-58
2024/03/28 04:54:35;;;;;;;4.30;0.97;;;8.00;95.30;;;;;;5073850;28;20200;-58
2024/03/28 04:57:01;;;;;;;3.30;0.80;;;8.00;95.60;;;;;;5068019;28;20220;-58
2024/03/28 04:59:27;;;;;;;6.53;0.97;;;8.00;95.40;;;;;;5071934;28;20205;-58
2024/03/28 05:01:53;;;;;;;5.30;1.10;;;8.00;95.50;;;;;;5072029;28;20549;-58
2024/03/28 05:04:19;;;;;;;2.00;0.83;;;8.10;95.70;;;;;;5071499;28;20190;-58
2024/03/28 05:06:45;;;;;;;2.37;1.27;;;8.20;95.70;;;;;;5063952;28;20192;-58
2024/03/28 05:09:13;;;;;;;3.30;1.00;;;8.20;95.80;;;;;;5073162;28;20208;-58
2024/03/28 05:11:39;;;;;;;2.63;1.20;;;8.30;95.90;;;;;;5072352;28;20194;-58
2024/03/28 05:14:05;;;;;;;1.00;0.90;;;8.40;96.00;;;;;;5073547;28;20195;-58
2024/03/28 05:16:32;;;;;;;3.73;0.77;;;8.40;96.10;;;;;;5055552;28;20194;-58
2024/03/28 05:18:58;;;;;;;2.70;0.70;;;8.50;96.20;;;;;;5073614;28;20826;-58
2024/03/28 05:21:24;;;;;;;3.83;1.00;;;8.60;96.30;;;;;;5072982;28;20682;-58
2024/03/28 05:23:51;;;;;;;1.50;1.10;;;8.70;96.30;;;;;;5072217;28;20585;-58
2024/03/28 05:26:18;;;;;;;2.10;1.00;;;8.80;96.30;;;;;;5071393;28;20268;-58
2024/03/28 05:28:44;;;;;;;5.70;0.90;;;8.90;96.30;;;;;;5069513;28;20208;-58
2024/03/28 05:31:16;;;;;;;1.57;0.97;;;8.90;96.20;;;;;;5072282;28;20211;-58
2024/03/28 05:33:42;;;;;;;1.83;0.90;;;9.00;96.20;;;;;;5071915;28;20211;-58
2024/03/28 05:36:08;;;;;;;3.10;1.20;;;9.00;96.20;;;;;;5073411;28;20635;-58
2024/03/28 05:38:34;;;;;;;4.43;0.70;;;9.10;96.20;;;;;;5069588;28;20241;-58
2024/03/28 05:41:00;;;;;;;3.13;0.60;;;9.10;96.30;;;;;;5071011;28;20207;-58
2024/03/28 05:43:26;;;;;;;3.00;0.80;;;9.10;96.40;;;;;;5071156;28;20657;-58
2024/03/28 05:45:52;;;;;;;2.90;0.60;;;9.20;96.50;;;;;;5073054;28;20201;-58
2024/03/28 05:48:19;;;;;;;5.10;0.70;;;9.30;96.60;;;;;;5071350;28;20203;-58
2024/03/28 05:50:45;;;;;;;3.97;1.00;;;9.50;96.70;;;;;;5072839;28;20494;-58
2024/03/28 05:53:12;;;;;;;3.83;0.90;;;9.60;96.80;;;;;;5071420;28;20206;-58
2024/03/28 05:55:40;;;;;;;3.13;0.80;;;9.60;96.80;;;;;;5069191;28;20253;-58
2024/03/28 05:58:06;;;;;;;7.20;1.90;;;9.80;96.90;;;;;;5073266;28;20214;-59
2024/03/28 06:00:32;;;;;;;0.50;0.50;;;9.90;97.00;;;;;;5072154;28;20205;-58
2024/03/28 06:02:58;;;;;;;3.03;0.77;;;10.00;97.10;;;;;;5071603;28;20660;-58
2024/03/28 06:05:24;;;;;;;1.83;0.70;;;10.10;97.10;;;;;;5069797;28;20600;-58
2024/03/28 06:07:50;;;;;;;1.63;0.80;;;10.20;97.20;;;;;;5071956;28;20695;-58
2024/03/28 06:10:16;;;;;;;2.07;0.60;;;10.30;97.20;;;;;;5074369;28;20722;-58
2024/03/28 06:12:42;;;;;;;2.23;0.70;;;10.50;97.30;;;;;;5073171;28;20211;-58
2024/03/28 06:15:09;;;;;;;1.90;0.63;;;10.60;97.40;;;;;;5070747;28;20264;-58
2024/03/28 06:17:35;;;;;;;1.57;0.80;;;10.70;97.50;;;;;;5067996;28;20708;-58
2024/03/28 06:20:01;;;;;;;2.10;0.80;;;10.90;97.60;;;;;;5069916;28;20661;-58
2024/03/28 06:22:27;;;;;;;1.70;0.50;;;11.00;97.90;;;;;;5070716;28;20537;-58
2024/03/28 06:24:53;;;;;;;3.57;0.50;;;11.10;97.50;;;;;;5062740;28;20194;-58
2024/03/28 06:27:20;;;;;;;1.20;0.60;;;11.20;97.40;;;;;;5068528;28;20213;-58
2024/03/28 06:29:52;;;;;;;6.00;0.50;;;11.40;97.30;;;;;;5069188;28;20201;-58
2024/03/28 06:32:25;;;;;;;5.03;0.77;;;11.40;97.20;;;;;;5070928;28;20635;-58
2024/03/28 06:34:51;;;;;;;0.43;0.40;;;11.50;97.10;;;;;;5068725;28;20213;-58
2024/03/28 06:37:21;;;;;;;2.13;0.70;;;11.50;97.00;;;;;;5068080;28;20819;-58
2024/03/28 06:39:49;;;;;;;0.77;0.60;;;11.60;97.10;;;;;;5071237;28;20225;-58
2024/03/28 06:42:16;;;;;;;0.97;0.60;;;11.60;97.20;;;;;;5066950;28;20194;-58
2024/03/28 06:44:47;;;;;;;4.43;0.53;;;11.60;97.20;;;;;;5070019;28;20527;-58
2024/03/28 06:47:13;;;;;;;2.80;0.60;;;11.60;97.30;;;;;;5064832;28;20213;-58
2024/03/28 06:49:39;;;;;;;3.33;0.50;;;11.70;97.30;;;;;;5068689;28;20201;-58
2024/03/28 06:52:06;;;;;;;4.50;0.80;;;11.60;97.30;;;;;;5069795;28;20204;-58
2024/03/28 06:54:32;;;;;;;1.77;0.97;;;11.60;97.40;;;;;;5072157;28;20201;-59
2024/03/28 06:56:59;;;;;;;3.10;1.00;;;11.60;97.40;;;;;;5070622;28;20643;-58
2024/03/28 06:59:25;;;;;;;2.70;0.73;;;11.60;97.50;;;;;;5069667;28;20205;-58
2024/03/28 07:01:51;;;;;;;3.60;0.57;;;11.60;97.50;;;;;;5067993;28;20209;-58
2024/03/28 07:04:18;;;;;;;0.80;0.70;;;11.60;97.60;;;;;;5065885;28;20655;-58
2024/03/28 07:06:44;;;;;;;0.93;0.63;;;11.50;97.70;;;;;;5065981;28;20202;-59
2024/03/28 07:09:11;;;;;;;3.43;0.80;;;11.50;97.80;;;;;;5071314;28;20194;-59
2024/03/28 07:11:37;;;;;;;2.67;0.80;;;11.50;97.90;;;;;;5066331;28;20204;-59
2024/03/28 07:14:03;;;;;;;1.03;0.40;;;11.50;98.00;;;;;;5068476;28;20252;-59
2024/03/28 07:16:30;;;;;;;1.63;0.50;;;11.40;98.10;;;;;;5067320;28;20734;-58
2024/03/28 07:18:57;;;;;;;2.27;1.03;;;11.40;98.30;;;;;;5063451;28;20214;-59
2024/03/28 07:21:23;;;;;;;1.80;0.60;;;11.40;98.40;;;;;;5066310;28;20197;-58
2024/03/28 07:23:50;;;;;;;2.87;0.53;;;11.40;98.50;;;;;;5069375;28;20635;-58
2024/03/28 07:26:17;;;;;;;1.10;0.50;;;11.40;98.60;;;;;;5079850;28;20193;-59
2024/03/28 07:28:43;;;;;;;1.67;0.63;;;11.40;98.80;;;;;;5070559;28;20207;-59
2024/03/28 07:31:09;;;;;;;0.80;0.53;;;11.40;98.90;;;;;;5067571;28;20220;-59
2024/03/28 07:33:35;;;;;;;1.57;0.50;;;11.40;98.90;;;;;;5069216;28;20524;-59
2024/03/28 07:36:02;;;;;;;2.10;0.63;;;11.40;99.10;;;;;;5069721;28;20224;-59
2024/03/28 07:38:28;;;;;;;3.73;0.80;;;11.40;99.20;;;;;;5065881;28;20234;-59
2024/03/28 07:40:56;;;;;;;0.83;0.70;;;11.40;99.40;;;;;;5053730;28;20201;-59
2024/03/28 07:43:22;;;;;;;3.63;0.80;;;11.50;99.60;;;;;;5052119;28;20197;-59
2024/03/28 07:45:48;;;;;;;1.87;0.50;;;11.50;99.80;;;;;;5058131;28;20228;-59
2024/03/28 07:48:14;;;;;;;0.60;0.57;;;11.50;99.80;;;;;;5050991;28;20205;-59
2024/03/28 07:50:41;;;;;;;2.83;0.60;;;11.60;99.90;;;;;;5069060;28;20205;-59
2024/03/28 07:53:08;;;;;;;4.50;0.97;;;11.60;99.90;;;;;;5050381;28;20259;-61
2024/03/28 07:55:34;;;;;;;1.27;0.63;;;11.60;99.90;;;;;;5047226;28;20202;-60
2024/03/28 07:58:00;;;;;;;1.07;0.60;;;11.70;99.90;;;;;;5049940;28;20229;-60
2024/03/28 08:00:27;;;;;;;3.70;0.80;;;11.70;99.90;;;;;;5047315;28;20208;-60
2024/03/28 08:02:54;;;;;;;0.77;0.40;;;11.70;99.90;;;;;;5056089;28;20204;-60
2024/03/28 08:05:21;;;;;;;2.53;0.57;;;11.70;99.90;;;;;;5053822;28;20558;-60
2024/03/28 08:07:47;;;;;;;1.60;0.70;;;11.70;99.90;;;;;;5050735;28;20215;-60
2024/03/28 08:10:13;;;;;;;2.73;0.83;;;11.80;99.90;;;;;;5055494;28;20321;-60
2024/03/28 08:12:39;;;;;;;1.40;0.53;;;11.70;99.90;;;;;;5052479;28;20197;-60
2024/03/28 08:15:06;;;;;;;2.63;0.77;;;11.80;99.90;;;;;;5050410;28;20257;-60
2024/03/28 08:17:33;;;;;;;0.80;0.67;;;11.80;99.90;;;;;;5054025;28;20644;-60
2024/03/28 08:20:13;;;;;;;2.37;0.60;;;11.80;99.90;;;;;;5051404;28;20201;-60
2024/03/28 08:22:39;;;;;;;2.23;0.77;;;11.80;99.90;;;;;;5052221;28;20198;-60
2024/03/28 08:25:06;;;;;;;1.13;0.87;;;11.80;99.90;;;;;;5052258;28;20189;-60
2024/03/28 08:27:32;;;;;;;0.90;0.70;;;11.80;99.90;;;;;;5069852;28;20209;-60
2024/03/28 08:29:59;;;;;;;5.00;0.90;;;11.80;99.90;;;;;;5053942;28;20236;-60
2024/03/28 08:32:26;;;;;;;2.40;0.63;;;11.80;99.90;;;;;;5054162;28;20202;-61
2024/03/28 08:34:52;;;;;;;1.77;0.70;;;11.90;99.90;;;;;;5052374;28;20201;-60
2024/03/28 08:37:19;;;;;;;2.30;0.97;;;11.90;99.90;;;;;;5054377;28;20232;-60
2024/03/28 08:39:45;;;;;;;1.70;0.70;;;11.90;99.90;;;;;;5081229;28;20648;-60
2024/03/28 08:42:11;;;;;;;0.93;0.60;;;11.90;99.90;;;;;;5069001;28;20198;-60
2024/03/28 08:44:37;;;;;;;2.83;1.00;;;12.00;99.90;;;;;;5066714;28;20198;-60
2024/03/28 08:47:04;;;;;;;2.53;0.80;;;12.00;99.90;;;;;;5069338;28;20202;-60
2024/03/28 08:49:30;;;;;;;2.77;0.63;;;12.10;99.90;;;;;;5069055;28;20204;-60
2024/03/28 08:51:56;;;;;;;2.53;0.67;;;12.10;99.90;;;;;;5067850;28;20210;-60
2024/03/28 08:54:24;;;;;;;3.33;0.83;;;12.10;99.90;;;;;;5070797;28;20553;-60
2024/03/28 08:56:50;;;;;;;4.50;0.77;;;12.10;99.90;;;;;;5066742;28;20190;-60
2024/03/28 08:59:20;;;;;;;0.60;0.60;;;12.10;99.90;;;;;;5066366;28;20206;-60
2024/03/28 09:01:46;;;;;;;2.10;0.60;;;12.10;99.90;;;;;;5065826;28;20202;-60
2024/03/28 09:04:19;;;;;;;0.80;0.70;;;12.20;99.90;;;;;;5071364;28;20209;-60
2024/03/28 09:06:46;;;;;;;2.00;0.70;;;12.30;99.90;;;;;;5064017;28;20194;-60
2024/03/28 09:09:14;;;;;;;6.37;0.70;;;12.30;99.90;;;;;;5070192;28;20201;-60
2024/03/28 09:11:41;;;;;;;0.80;0.60;;;12.40;99.90;;;;;;5071205;28;20194;-60
2024/03/28 09:14:08;;;;;;;1.43;0.67;;;12.40;99.90;;;;;;5052558;28;20719;-61
2024/03/28 09:16:34;;;;;;;4.00;1.03;;;12.40;99.90;;;;;;5072970;28;20611;-60
2024/03/28 09:19:06;;;;;;;2.83;0.83;;;12.40;99.90;;;;;;5071921;28;20219;-60
2024/03/28 09:21:32;;;;;;;2.47;0.77;;;12.40;99.90;;;;;;5071655;28;20243;-60
2024/03/28 09:23:59;;;;;;;2.00;0.87;;;12.50;99.90;;;;;;5074597;28;20211;-60
2024/03/28 09:26:25;;;;;;;2.73;0.80;;;12.50;99.90;;;;;;5069415;28;20194;-60
2024/03/28 09:28:58;;;;;;;1.50;0.80;;;12.50;99.90;;;;;;5067085;28;20250;-61
2024/03/28 09:31:27;;;;;;;0.97;0.50;;;12.40;99.90;;;;;;5073287;28;20646;-60
2024/03/28 09:33:53;;;;;;;2.03;0.90;;;12.40;99.90;;;;;;5068628;28;20194;-60
2024/03/28 09:36:19;;;;;;;1.70;0.70;;;12.40;99.90;;;;;;5071971;28;20193;-60
2024/03/28 09:38:52;;;;;;;2.70;1.10;;;12.30;99.90;;;;;;5070136;28;20282;-60
2024/03/28 09:41:29;;;;;;;1.60;0.77;;;12.30;99.90;;;;;;5070658;28;20262;-61
2024/03/28 09:44:04;;;;;;;1.43;0.80;;;12.20;99.90;;;;;;5072587;28;20522;-60
2024/03/28 09:46:31;;;;;;;1.37;0.80;;;12.20;99.90;;;;;;5071426;28;20223;-61
2024/03/28 09:49:00;;;;;;;0.90;0.73;;;12.20;99.90;;;;;;5070462;28;20619;-62
2024/03/28 09:51:27;;;;;;;3.50;0.77;;;12.20;99.90;;;;;;5072253;28;20644;-61
2024/03/28 09:53:53;;;;;;;0.97;0.67;;;12.20;99.90;;;;;;5073037;28;20238;-63
2024/03/28 09:56:23;;;;;;;1.77;0.70;;;12.20;99.90;;;;;;5072853;28;20309;-61
2024/03/28 09:58:50;;;;;;;1.67;1.03;;;12.20;99.90;;;;;;5071720;28;20221;-60
2024/03/28 10:01:17;;;;;;;1.27;0.80;;;12.20;99.90;;;;;;5071436;28;20213;-61
2024/03/28 10:04:14;;;;;;;1.13;0.77;;;12.10;99.90;;;;;;5072780;28;20196;-60
2024/03/28 10:06:54;;;;;;;0.70;0.70;;;12.10;99.90;;;;;;5056846;28;20228;-60
2024/03/28 10:09:24;;;;;;;2.00;0.77;;;12.10;99.90;;;;;;5068425;28;20194;-60
2024/03/28 10:11:51;;;;;;;3.13;0.70;;;12.10;99.90;;;;;;5071565;28;20259;-60
2024/03/28 10:14:22;;;;;;;1.23;0.90;;;12.10;99.90;;;;;;5066182;28;20197;-60
2024/03/28 10:16:49;;;;;;;1.80;0.70;;;12.10;99.90;;;;;;5064481;28;20206;-60
2024/03/28 10:19:21;;;;;;;3.30;1.87;;;12.10;99.90;;;;;;5065300;28;20218;-60
2024/03/28 10:21:47;;;;;;;2.10;0.90;;;12.10;99.90;;;;;;5067100;28;20186;-61
2024/03/28 10:24:17;;;;;;;5.07;1.07;;;12.20;99.90;;;;;;5072335;28;20205;-60
2024/03/28 10:26:44;;;;;;;1.77;0.67;;;12.20;99.90;;;;;;5071528;28;20213;-60
2024/03/28 10:29:12;;;;;;;2.77;0.80;;;12.20;99.90;;;;;;5071028;28;20208;-60
2024/03/28 10:31:42;;;;;;;2.27;0.77;;;12.30;99.90;;;;;;5072547;28;20193;-60
2024/03/28 10:34:18;;;;;;;3.03;1.30;;;12.30;99.90;;;;;;5066774;28;20201;-60
2024/03/28 10:36:47;;;;;;;4.03;1.37;;;12.30;99.90;;;;;;5088464;28;20194;-61
2024/03/28 10:39:14;;;;;;;3.97;1.40;;;12.30;99.90;;;;;;5078276;28;20232;-59
2024/03/28 10:41:42;;;;;;;5.50;2.00;;;12.30;99.90;;;;;;5074780;28;20630;-61
2024/03/28 10:44:09;;;;;;;3.90;1.70;;;12.40;99.90;;;;;;5075493;28;20208;-60
2024/03/28 10:46:39;;;;;;;2.37;1.00;;;12.50;99.90;;;;;;5086554;28;20211;-60
2024/03/28 10:49:06;;;;;;;3.17;1.33;;;12.60;99.90;;;;;;5074170;28;20197;-60
2024/03/28 10:51:41;;;;;;;1.50;0.83;;;12.70;99.90;;;;;;5073244;28;20212;-60
2024/03/28 10:54:35;;;;;;;2.00;0.93;;;12.70;99.90;;;;;;5071013;28;20202;-61
2024/03/28 10:57:04;;;;;;;2.37;1.00;;;12.70;99.90;;;;;;5064571;28;20189;-61
2024/03/28 10:59:33;;;;;;;7.57;1.20;;;12.70;99.90;;;;;;5059391;28;20201;-62
2024/03/28 11:02:02;;;;;;;1.87;1.37;;;12.70;99.90;;;;;;5073301;28;20221;-62
2024/03/28 11:04:29;;;;;;;6.60;1.20;;;12.80;99.90;;;;;;5075483;28;20668;-60
2024/03/28 11:06:57;;;;;;;4.20;1.80;;;12.90;99.90;;;;;;5071397;28;20258;-59
2024/03/28 11:09:25;;;;;;;1.57;1.00;;;12.90;99.90;;;;;;5073190;28;20209;-60
2024/03/28 11:11:53;;;;;;;3.37;1.20;;;13.00;99.90;;;;;;5075004;28;20267;-61
2024/03/28 11:14:19;;;;;;;1.93;1.00;;;13.10;99.90;;;;;;5082574;28;20262;-61
2024/03/28 11:16:45;;;;;;;3.53;1.77;;;13.10;99.90;;;;;;5070988;28;20213;-60
2024/03/28 11:19:11;;;;;;;2.33;1.10;;;13.10;99.90;;;;;;5073066;28;20216;-60
2024/03/28 11:21:38;;;;;;;3.07;1.53;;;13.10;99.90;;;;;;5072364;28;20621;-60
2024/03/28 11:24:05;;;;;;;4.13;1.30;;;13.20;99.90;;;;;;5074601;28;20205;-60
2024/03/28 11:26:31;;;;;;;7.73;1.83;;;13.20;99.90;;;;;;5082901;28;20193;-59
2024/03/28 11:29:05;;;;;;;2.53;1.20;;;13.20;99.90;;;;;;5073085;28;20257;-60
2024/03/28 11:31:32;;;;;;;3.60;1.37;;;13.20;99.90;;;;;;5074119;28;20202;-60
2024/03/28 11:33:59;;;;;;;6.77;1.17;;;13.30;99.90;;;;;;5075047;28;20208;-61
2024/03/28 11:36:29;;;;;;;3.10;1.30;;;13.30;99.90;;;;;;5073237;28;20627;-61
2024/03/28 11:38:55;;;;;;;2.27;1.33;;;13.30;99.90;;;;;;5082623;28;20248;-60
2024/03/28 11:41:23;;;;;;;3.43;1.47;;;13.40;99.90;;;;;;5070612;28;20188;-60
2024/03/28 11:43:51;;;;;;;2.87;1.60;;;13.50;99.90;;;;;;5073467;28;20530;-60
2024/03/28 11:46:19;;;;;;;3.37;1.47;;;13.50;99.90;;;;;;5072723;28;20595;-60
2024/03/28 11:48:45;;;;;;;6.57;1.77;;;13.70;99.90;;;;;;5072583;28;20209;-60
2024/03/28 11:51:12;;;;;;;6.17;1.60;;;13.90;99.90;;;;;;5073604;28;20457;-60
2024/03/28 11:53:42;;;;;;;3.07;1.57;;;14.20;99.90;;;;;;5067873;28;20202;-60
2024/03/28 11:56:13;;;;;;;2.83;1.20;;;14.50;99.90;;;;;;5072184;28;20683;-60
2024/03/28 11:58:39;;;;;;;3.73;1.53;;;14.70;99.90;;;;;;5071137;28;20216;-60
2024/03/28 12:01:06;;;;;;;3.50;1.30;;;14.90;99.90;;;;;;5072047;28;20209;-60
2024/03/28 12:03:32;;;;;;;3.90;1.50;;;15.00;99.90;;;;;;5074325;28;20196;-60
2024/03/28 12:05:59;;;;;;;4.93;1.53;;;15.10;99.90;;;;;;5073882;28;20201;-60
2024/03/28 12:08:28;;;;;;;3.70;1.60;;;15.30;99.60;;;;;;5073775;28;20209;-60
2024/03/28 12:11:10;;;;;;;2.33;1.40;;;15.40;99.30;;;;;;5074826;28;20213;-60
2024/03/28 12:13:36;;;;;;;2.60;1.37;;;15.50;99.80;;;;;;5072991;28;20251;-60
2024/03/28 12:16:06;;;;;;;5.00;1.50;;;15.70;99.90;;;;;;5081082;28;20274;-59
2024/03/28 12:18:35;;;;;;;7.23;1.40;;;15.80;99.40;;;;;;5071045;28;20208;-60
2024/03/28 12:21:03;;;;;;;4.43;1.93;;;15.90;99.50;;;;;;5057400;28;20192;-60
2024/03/28 12:23:30;;;;;;;4.73;1.73;;;16.00;99.40;;;;;;5074233;28;20193;-60
2024/03/28 12:25:57;;;;;;;3.67;1.97;;;16.20;99.70;;;;;;5075251;28;20204;-59
2024/03/28 12:28:24;;;;;;;5.70;2.00;;;16.30;99.60;;;;;;5074019;28;20239;-59
2024/03/28 12:30:55;;;;;;;7.40;2.90;;;16.50;98.80;;;;;;5061736;28;20254;-59
2024/03/28 12:33:25;;;;;;;4.43;1.57;;;16.50;98.50;;;;;;5083099;28;20196;-59
2024/03/28 12:35:56;;;;;;;3.17;1.40;;;16.50;98.50;;;;;;5071268;28;20215;-59
2024/03/28 12:38:24;;;;;;;7.87;2.33;;;16.50;98.40;;;;;;5072806;28;20237;-60
2024/03/28 12:40:52;;;;;;;1.87;1.60;;;16.50;98.40;;;;;;5074916;28;20623;-59
2024/03/28 12:43:23;;;;;;;3.17;1.50;;;16.60;98.60;;;;;;5074122;28;20194;-59
2024/03/28 12:46:10;;;;;;;5.10;1.87;;;16.60;98.70;;;;;;5072798;28;20209;-59
2024/03/28 12:48:36;;;;;;;2.70;1.60;;;16.60;98.30;;;;;;5071743;28;20205;-60
2024/03/28 12:51:03;;;;;;;3.67;1.37;;;16.60;98.30;;;;;;5076427;28;20668;-60
2024/03/28 12:53:29;;;;;;;3.70;2.07;;;16.60;98.40;;;;;;5073735;28;20194;-60
2024/03/28 12:55:55;;;;;;;3.47;1.70;;;16.60;98.30;;;;;;5073868;28;20253;-60
2024/03/28 12:58:23;;;;;;;4.77;2.27;;;16.60;98.10;;;;;;5073983;28;20221;-60